sensor_id;sensor_type;location;lat;lon;timestamp;temperature;humidity
3846;DHT22;1938;50.812;7.738;2024-01-15T00:01:54;-0.90;99.90
3846;DHT22;1938;50.812;7.738;2024-01-15T00:04:20;-0.80;99.90
3846;DHT22;1938;50.812;7.738;2024-01-15T00:06:46;-0.90;99.90
3846;DHT22;1938;50.812;7.738;2024-01-15T00:09:11;-0.80;99.90
3846;DHT22;1938;50.812;7.738;2024-01-15T00:11:37;-0.80;99.90
3846;DHT22;1938;50.812;7.738;2024-01-15T00:14:02;-0.60;99.90
3846;DHT22;1938;50.812;7.738;2024-01-15T00:16:28;-0.70;99.90
3846;DHT22;1938;50.812;7.738;2024-01-15T00:18:54;-0.80;99.90
3846;DHT22;1938;50.812;7.738;2024-01-15T00:21:19;-0.80;99.90
3846;DHT22;1938;50.812;7.738;2024-01-15T00:23:45;-0.80;99.90
3846;DHT22;1938;50.812;7.738;2024-01-15T00:26:12;-0.80;99.90
3846;DHT22;1938;50.812;7.738;2024-01-15T00:28:38;-0.80;99.90
3846;DHT22;1938;50.812;7.738;2024-01-15T00:31:04;-0.80;99.90
3846;DHT22;1938;50.812;7.738;2024-01-15T00:33:30;-0.80;99.90
3846;DHT22;1938;50.812;7.738;2024-01-15T00:35:56;-0.70;99.90
3846;DHT22;1938;50.812;7.738;2024-01-15T00:38:21;-0.50;99.90
3846;DHT22;1938;50.812;7.738;2024-01-15T00:40:47;-0.70;99.90
3846;DHT22;1938;50.812;7.738;2024-01-15T00:43:12;-0.70;99.90
3846;DHT22;1938;50.812;7.738;2024-01-15T00:45:38;-0.80;99.90
3846;DHT22;1938;50.812;7.738;2024-01-15T00:48:04;-0.80;99.90
3846;DHT22;1938;50.812;7.738;2024-01-15T00:50:30;-0.80;99.90
3846;DHT22;1938;50.812;7.738;2024-01-15T00:52:55;-0.70;99.90
3846;DHT22;1938;50.812;7.738;2024-01-15T00:55:21;-0.80;99.90
3846;DHT22;1938;50.812;7.738;2024-01-15T00:57:46;-0.80;99.90
3846;DHT22;1938;50.812;7.738;2024-01-15T01:00:12;-0.70;99.90
3846;DHT22;1938;50.812;7.738;2024-01-15T01:02:38;-0.50;99.90
3846;DHT22;1938;50.812;7.738;2024-01-15T01:05:04;-0.50;99.90
3846;DHT22;1938;50.812;7.738;2024-01-15T01:07:29;-0.70;99.90
3846;DHT22;1938;50.812;7.738;2024-01-15T01:09:55;-0.70;99.90
3846;DHT22;1938;50.812;7.738;2024-01-15T01:12:20;-0.80;99.90
3846;DHT22;1938;50.812;7.738;2024-01-15T01:14:46;-0.70;99.90
3846;DHT22;1938;50.812;7.738;2024-01-15T01:17:12;-0.80;99.90
3846;DHT22;1938;50.812;7.738;2024-01-15T01:19:38;-0.80;99.90
3846;DHT22;1938;50.812;7.738;2024-01-15T01:22:04;-0.80;99.90
3846;DHT22;1938;50.812;7.738;2024-01-15T01:24:29;-0.80;99.90
3846;DHT22;1938;50.812;7.738;2024-01-15T01:26:55;-0.70;99.90
3846;DHT22;1938;50.812;7.738;2024-01-15T01:29:20;-0.50;99.90
3846;DHT22;1938;50.812;7.738;2024-01-15T01:31:46;-0.60;99.90
3846;DHT22;1938;50.812;7.738;2024-01-15T01:34:14;-0.70;99.90
3846;DHT22;1938;50.812;7.738;2024-01-15T01:36:40;-0.80;99.90
3846;DHT22;1938;50.812;7.738;2024-01-15T01:39:06;-0.80;99.90
3846;DHT22;1938;50.812;7.738;2024-01-15T01:41:31;-0.80;99.90
3846;DHT22;1938;50.812;7.738;2024-01-15T01:43:57;-0.80;99.90
3846;DHT22;1938;50.812;7.738;2024-01-15T01:46:23;-0.80;99.90
3846;DHT22;1938;50.812;7.738;2024-01-15T01:48:49;-0.70;99.90
3846;DHT22;1938;50.812;7.738;2024-01-15T01:51:15;-0.70;99.90
3846;DHT22;1938;50.812;7.738;2024-01-15T01:53:43;-0.30;99.90
3846;DHT22;1938;50.812;7.738;2024-01-15T01:56:09;-0.60;99.90
3846;DHT22;1938;50.812;7.738;2024-01-15T01:58:35;-0.60;99.90
3846;DHT22;1938;50.812;7.738;2024-01-15T02:01:00;-0.70;99.90
3846;DHT22;1938;50.812;7.738;2024-01-15T02:03:27;-0.70;99.90
3846;DHT22;1938;50.812;7.738;2024-01-15T02:05:53;-0.70;99.90
3846;DHT22;1938;50.812;7.738;2024-01-15T02:08:19;-0.70;99.90
3846;DHT22;1938;50.812;7.738;2024-01-15T02:10:45;-0.70;99.90
3846;DHT22;1938;50.812;7.738;2024-01-15T02:13:11;-0.60;99.90
3846;DHT22;1938;50.812;7.738;2024-01-15T02:15:36;-0.60;99.90
3846;DHT22;1938;50.812;7.738;2024-01-15T02:18:04;-0.40;99.90
3846;DHT22;1938;50.812;7.738;2024-01-15T02:20:30;-0.60;99.90
3846;DHT22;1938;50.812;7.738;2024-01-15T02:23:15;-0.60;99.90
3846;DHT22;1938;50.812;7.738;2024-01-15T02:25:47;-0.60;99.90
3846;DHT22;1938;50.812;7.738;2024-01-15T02:28:15;-0.60;99.90
3846;DHT22;1938;50.812;7.738;2024-01-15T02:30:41;-0.70;99.90
3846;DHT22;1938;50.812;7.738;2024-01-15T02:33:08;-0.60;99.90
3846;DHT22;1938;50.812;7.738;2024-01-15T02:35:34;-0.60;99.90
3846;DHT22;1938;50.812;7.738;2024-01-15T02:48:14;-0.70;99.90
3846;DHT22;1938;50.812;7.738;2024-01-15T02:50:40;-0.60;99.90
3846;DHT22;1938;50.812;7.738;2024-01-15T02:53:05;-0.60;99.90
3846;DHT22;1938;50.812;7.738;2024-01-15T02:55:31;-0.70;99.90
3846;DHT22;1938;50.812;7.738;2024-01-15T02:57:57;-0.60;99.90
3846;DHT22;1938;50.812;7.738;2024-01-15T03:00:23;-0.80;99.90
3846;DHT22;1938;50.812;7.738;2024-01-15T03:02:51;-0.90;99.90
3846;DHT22;1938;50.812;7.738;2024-01-15T03:05:17;-1.10;99.90
3846;DHT22;1938;50.812;7.738;2024-01-15T03:07:42;-1.00;99.90
3846;DHT22;1938;50.812;7.738;2024-01-15T03:10:09;-1.00;99.90
3846;DHT22;1938;50.812;7.738;2024-01-15T03:12:34;-0.80;99.90
3846;DHT22;1938;50.812;7.738;2024-01-15T03:15:00;-0.50;99.90
3846;DHT22;1938;50.812;7.738;2024-01-15T03:17:25;-0.70;99.90
3846;DHT22;1938;50.812;7.738;2024-01-15T03:19:51;-0.70;99.90
3846;DHT22;1938;50.812;7.738;2024-01-15T03:22:17;-0.70;99.90
3846;DHT22;1938;50.812;7.738;2024-01-15T03:24:42;-0.80;99.90
3846;DHT22;1938;50.812;7.738;2024-01-15T03:27:08;-0.80;99.90
3846;DHT22;1938;50.812;7.738;2024-01-15T03:29:33;-0.80;99.90
3846;DHT22;1938;50.812;7.738;2024-01-15T03:32:00;-0.80;99.90
3846;DHT22;1938;50.812;7.738;2024-01-15T03:34:25;-0.70;99.90
3846;DHT22;1938;50.812;7.738;2024-01-15T03:36:51;-0.80;99.90
3846;DHT22;1938;50.812;7.738;2024-01-15T03:39:16;-0.80;99.90
3846;DHT22;1938;50.812;7.738;2024-01-15T03:41:42;-0.80;99.90
3846;DHT22;1938;50.812;7.738;2024-01-15T03:44:07;-0.80;99.90
3846;DHT22;1938;50.812;7.738;2024-01-15T03:46:32;-0.80;99.90
3846;DHT22;1938;50.812;7.738;2024-01-15T03:48:58;-0.70;99.90
3846;DHT22;1938;50.812;7.738;2024-01-15T03:51:24;-0.60;99.90
3846;DHT22;1938;50.812;7.738;2024-01-15T03:53:49;-0.50;99.90
3846;DHT22;1938;50.812;7.738;2024-01-15T03:56:15;-0.30;99.90
3846;DHT22;1938;50.812;7.738;2024-01-15T03:58:40;-0.40;99.90
3846;DHT22;1938;50.812;7.738;2024-01-15T04:01:09;-0.70;99.90
3846;DHT22;1938;50.812;7.738;2024-01-15T04:03:35;-0.70;99.90
3846;DHT22;1938;50.812;7.738;2024-01-15T04:06:04;-0.70;99.90
3846;DHT22;1938;50.812;7.738;2024-01-15T04:08:30;-0.50;99.90
3846;DHT22;1938;50.812;7.738;2024-01-15T04:10:55;-0.60;99.90
3846;DHT22;1938;50.812;7.738;2024-01-15T04:13:21;-0.60;99.90
3846;DHT22;1938;50.812;7.738;2024-01-15T04:15:47;-0.60;99.90
3846;DHT22;1938;50.812;7.738;2024-01-15T04:18:12;-0.70;99.90
3846;DHT22;1938;50.812;7.738;2024-01-15T04:20:38;-0.70;99.90
3846;DHT22;1938;50.812;7.738;2024-01-15T04:23:04;-0.80;99.90
3846;DHT22;1938;50.812;7.738;2024-01-15T04:25:29;-0.70;99.90
3846;DHT22;1938;50.812;7.738;2024-01-15T04:27:55;-0.60;99.90
3846;DHT22;1938;50.812;7.738;2024-01-15T04:30:20;-0.70;99.90
3846;DHT22;1938;50.812;7.738;2024-01-15T04:32:46;-0.50;99.90
3846;DHT22;1938;50.812;7.738;2024-01-15T04:35:11;-0.40;99.90
3846;DHT22;1938;50.812;7.738;2024-01-15T04:37:39;-0.40;99.90
3846;DHT22;1938;50.812;7.738;2024-01-15T04:40:05;-0.60;99.90
3846;DHT22;1938;50.812;7.738;2024-01-15T04:42:30;-0.60;99.90
3846;DHT22;1938;50.812;7.738;2024-01-15T04:44:56;-0.70;99.90
3846;DHT22;1938;50.812;7.738;2024-01-15T04:47:22;-0.70;99.90
3846;DHT22;1938;50.812;7.738;2024-01-15T04:49:47;-0.70;99.90
3846;DHT22;1938;50.812;7.738;2024-01-15T04:52:14;-0.80;99.90
3846;DHT22;1938;50.812;7.738;2024-01-15T04:54:40;-0.70;99.90
3846;DHT22;1938;50.812;7.738;2024-01-15T04:57:05;-0.70;99.90
3846;DHT22;1938;50.812;7.738;2024-01-15T04:59:31;-0.80;99.90
3846;DHT22;1938;50.812;7.738;2024-01-15T05:01:56;-0.80;99.90
3846;DHT22;1938;50.812;7.738;2024-01-15T05:04:22;-0.70;99.90
3846;DHT22;1938;50.812;7.738;2024-01-15T05:06:47;-0.70;99.90
3846;DHT22;1938;50.812;7.738;2024-01-15T05:09:13;-0.80;99.90
3846;DHT22;1938;50.812;7.738;2024-01-15T05:11:39;-0.60;99.90
3846;DHT22;1938;50.812;7.738;2024-01-15T05:14:05;-0.30;99.90
3846;DHT22;1938;50.812;7.738;2024-01-15T05:16:30;-0.30;99.90
3846;DHT22;1938;50.812;7.738;2024-01-15T05:18:56;-0.30;99.90
3846;DHT22;1938;50.812;7.738;2024-01-15T05:21:21;-0.30;99.90
3846;DHT22;1938;50.812;7.738;2024-01-15T05:23:47;-0.40;99.90
3846;DHT22;1938;50.812;7.738;2024-01-15T05:26:12;-0.50;99.90
3846;DHT22;1938;50.812;7.738;2024-01-15T05:28:41;-0.60;99.90
3846;DHT22;1938;50.812;7.738;2024-01-15T05:31:08;-0.60;99.90
3846;DHT22;1938;50.812;7.738;2024-01-15T05:33:33;-0.50;99.90
3846;DHT22;1938;50.812;7.738;2024-01-15T05:35:59;-0.60;99.90
3846;DHT22;1938;50.812;7.738;2024-01-15T05:38:24;-0.50;99.90
3846;DHT22;1938;50.812;7.738;2024-01-15T05:40:50;-0.50;99.90
3846;DHT22;1938;50.812;7.738;2024-01-15T05:43:15;-0.40;99.90
3846;DHT22;1938;50.812;7.738;2024-01-15T05:45:43;-0.40;99.90
3846;DHT22;1938;50.812;7.738;2024-01-15T05:48:09;-0.50;99.90
3846;DHT22;1938;50.812;7.738;2024-01-15T05:50:34;-0.80;99.90
3846;DHT22;1938;50.812;7.738;2024-01-15T05:53:00;-0.80;99.90
3846;DHT22;1938;50.812;7.738;2024-01-15T05:55:25;-0.60;99.90
3846;DHT22;1938;50.812;7.738;2024-01-15T05:57:51;-0.10;99.90
3846;DHT22;1938;50.812;7.738;2024-01-15T06:00:17;-0.20;99.90
3846;DHT22;1938;50.812;7.738;2024-01-15T06:02:42;-0.40;99.90
3846;DHT22;1938;50.812;7.738;2024-01-15T06:05:08;-0.40;99.90
3846;DHT22;1938;50.812;7.738;2024-01-15T06:07:35;-0.50;99.90
3846;DHT22;1938;50.812;7.738;2024-01-15T06:10:01;0.30;99.90
3846;DHT22;1938;50.812;7.738;2024-01-15T06:12:28;1.10;99.90
3846;DHT22;1938;50.812;7.738;2024-01-15T06:14:54;0.50;99.90
3846;DHT22;1938;50.812;7.738;2024-01-15T06:17:19;0.40;99.90
3846;DHT22;1938;50.812;7.738;2024-01-15T06:19:45;0.30;99.90
3846;DHT22;1938;50.812;7.738;2024-01-15T06:22:10;-0.10;99.90
3846;DHT22;1938;50.812;7.738;2024-01-15T06:24:36;-0.20;99.90
3846;DHT22;1938;50.812;7.738;2024-01-15T06:27:02;-0.20;99.90
3846;DHT22;1938;50.812;7.738;2024-01-15T06:29:28;-0.40;99.90
3846;DHT22;1938;50.812;7.738;2024-01-15T06:31:53;-0.40;99.90
3846;DHT22;1938;50.812;7.738;2024-01-15T06:34:19;-0.50;99.90
3846;DHT22;1938;50.812;7.738;2024-01-15T06:36:44;-0.40;99.90
3846;DHT22;1938;50.812;7.738;2024-01-15T06:39:10;-0.50;99.90
3846;DHT22;1938;50.812;7.738;2024-01-15T06:41:36;-0.40;99.90
3846;DHT22;1938;50.812;7.738;2024-01-15T06:44:12;0.10;99.90
3846;DHT22;1938;50.812;7.738;2024-01-15T06:46:44;-0.30;99.90
3846;DHT22;1938;50.812;7.738;2024-01-15T06:49:10;-0.50;99.90
3846;DHT22;1938;50.812;7.738;2024-01-15T06:51:36;-0.50;99.90
3846;DHT22;1938;50.812;7.738;2024-01-15T06:54:02;-0.30;99.90
3846;DHT22;1938;50.812;7.738;2024-01-15T06:56:27;-0.30;99.90
3846;DHT22;1938;50.812;7.738;2024-01-15T06:58:53;-0.20;99.90
3846;DHT22;1938;50.812;7.738;2024-01-15T07:01:18;0.00;99.90
3846;DHT22;1938;50.812;7.738;2024-01-15T07:03:44;0.00;99.90
3846;DHT22;1938;50.812;7.738;2024-01-15T07:06:10;0.10;99.90
3846;DHT22;1938;50.812;7.738;2024-01-15T07:08:36;0.10;99.90
3846;DHT22;1938;50.812;7.738;2024-01-15T07:11:06;0.20;99.90
3846;DHT22;1938;50.812;7.738;2024-01-15T07:13:32;0.20;99.90
3846;DHT22;1938;50.812;7.738;2024-01-15T07:15:58;0.20;99.90
3846;DHT22;1938;50.812;7.738;2024-01-15T07:18:24;0.40;99.90
3846;DHT22;1938;50.812;7.738;2024-01-15T07:20:50;0.30;99.90
3846;DHT22;1938;50.812;7.738;2024-01-15T07:23:15;0.40;99.90
3846;DHT22;1938;50.812;7.738;2024-01-15T07:25:41;0.40;99.90
3846;DHT22;1938;50.812;7.738;2024-01-15T07:28:07;0.40;99.90
3846;DHT22;1938;50.812;7.738;2024-01-15T07:30:32;0.50;99.90
3846;DHT22;1938;50.812;7.738;2024-01-15T07:32:58;0.50;99.90
3846;DHT22;1938;50.812;7.738;2024-01-15T07:35:23;0.50;99.90
3846;DHT22;1938;50.812;7.738;2024-01-15T07:37:49;0.50;99.90
3846;DHT22;1938;50.812;7.738;2024-01-15T07:40:14;0.50;99.90
3846;DHT22;1938;50.812;7.738;2024-01-15T07:42:40;0.60;99.90
3846;DHT22;1938;50.812;7.738;2024-01-15T07:45:08;0.60;99.90
3846;DHT22;1938;50.812;7.738;2024-01-15T07:47:33;0.60;99.90
3846;DHT22;1938;50.812;7.738;2024-01-15T07:49:59;0.60;99.90
3846;DHT22;1938;50.812;7.738;2024-01-15T07:52:25;0.60;99.90
3846;DHT22;1938;50.812;7.738;2024-01-15T07:54:50;0.60;99.90
3846;DHT22;1938;50.812;7.738;2024-01-15T07:57:16;0.70;99.90
3846;DHT22;1938;50.812;7.738;2024-01-15T07:59:41;0.60;99.90
3846;DHT22;1938;50.812;7.738;2024-01-15T08:02:07;0.70;99.90
3846;DHT22;1938;50.812;7.738;2024-01-15T08:04:32;0.70;99.90
3846;DHT22;1938;50.812;7.738;2024-01-15T08:06:58;0.70;99.90
3846;DHT22;1938;50.812;7.738;2024-01-15T08:09:24;0.40;99.90
3846;DHT22;1938;50.812;7.738;2024-01-15T08:11:49;0.20;99.90
3846;DHT22;1938;50.812;7.738;2024-01-15T08:14:15;0.00;99.90
3846;DHT22;1938;50.812;7.738;2024-01-15T08:16:40;-0.30;99.90
3846;DHT22;1938;50.812;7.738;2024-01-15T08:19:06;-0.40;99.90
3846;DHT22;1938;50.812;7.738;2024-01-15T08:21:32;-0.30;99.90
3846;DHT22;1938;50.812;7.738;2024-01-15T08:24:01;-0.50;99.90
3846;DHT22;1938;50.812;7.738;2024-01-15T08:26:30;-0.50;99.90
3846;DHT22;1938;50.812;7.738;2024-01-15T08:28:56;-0.60;99.90
3846;DHT22;1938;50.812;7.738;2024-01-15T08:31:21;-0.50;99.90
3846;DHT22;1938;50.812;7.738;2024-01-15T08:33:47;-0.60;99.90
3846;DHT22;1938;50.812;7.738;2024-01-15T08:36:13;-0.60;99.90
3846;DHT22;1938;50.812;7.738;2024-01-15T08:38:38;-0.60;99.90
3846;DHT22;1938;50.812;7.738;2024-01-15T08:41:04;-0.60;99.90
3846;DHT22;1938;50.812;7.738;2024-01-15T08:43:30;-0.50;99.90
3846;DHT22;1938;50.812;7.738;2024-01-15T08:45:58;-0.40;99.90
3846;DHT22;1938;50.812;7.738;2024-01-15T08:48:24;-0.30;99.90
3846;DHT22;1938;50.812;7.738;2024-01-15T08:50:53;-0.10;99.90
3846;DHT22;1938;50.812;7.738;2024-01-15T08:53:18;0.00;99.90
3846;DHT22;1938;50.812;7.738;2024-01-15T08:55:44;0.00;99.90
3846;DHT22;1938;50.812;7.738;2024-01-15T08:58:10;-0.10;99.90
3846;DHT22;1938;50.812;7.738;2024-01-15T09:00:35;-0.10;99.90
3846;DHT22;1938;50.812;7.738;2024-01-15T09:03:02;-0.20;99.90
3846;DHT22;1938;50.812;7.738;2024-01-15T09:05:27;-0.30;99.90
3846;DHT22;1938;50.812;7.738;2024-01-15T09:07:53;-0.10;99.90
3846;DHT22;1938;50.812;7.738;2024-01-15T09:10:19;0.00;99.90
3846;DHT22;1938;50.812;7.738;2024-01-15T09:12:45;-0.20;99.90
3846;DHT22;1938;50.812;7.738;2024-01-15T09:15:10;-0.20;99.90
3846;DHT22;1938;50.812;7.738;2024-01-15T09:17:36;-0.30;99.90
3846;DHT22;1938;50.812;7.738;2024-01-15T09:20:02;-0.30;99.90
3846;DHT22;1938;50.812;7.738;2024-01-15T09:22:29;-0.50;99.90
3846;DHT22;1938;50.812;7.738;2024-01-15T09:24:55;-0.40;99.90
3846;DHT22;1938;50.812;7.738;2024-01-15T09:27:20;-0.40;99.90
3846;DHT22;1938;50.812;7.738;2024-01-15T09:29:46;-0.40;99.90
3846;DHT22;1938;50.812;7.738;2024-01-15T09:32:12;-0.20;99.90
3846;DHT22;1938;50.812;7.738;2024-01-15T09:34:38;0.20;99.90
3846;DHT22;1938;50.812;7.738;2024-01-15T09:37:04;0.00;99.90
3846;DHT22;1938;50.812;7.738;2024-01-15T09:39:29;-0.20;99.90
3846;DHT22;1938;50.812;7.738;2024-01-15T09:41:56;-0.20;99.90
3846;DHT22;1938;50.812;7.738;2024-01-15T09:44:21;-0.20;99.90
3846;DHT22;1938;50.812;7.738;2024-01-15T09:46:47;-0.30;99.90
3846;DHT22;1938;50.812;7.738;2024-01-15T09:49:16;-0.40;99.90
3846;DHT22;1938;50.812;7.738;2024-01-15T09:51:42;-0.40;99.90
3846;DHT22;1938;50.812;7.738;2024-01-15T09:54:08;-0.30;99.90
3846;DHT22;1938;50.812;7.738;2024-01-15T09:56:34;-0.30;99.90
3846;DHT22;1938;50.812;7.738;2024-01-15T09:59:01;0.10;99.90
3846;DHT22;1938;50.812;7.738;2024-01-15T10:01:28;-0.10;99.90
3846;DHT22;1938;50.812;7.738;2024-01-15T10:03:54;-0.20;99.90
3846;DHT22;1938;50.812;7.738;2024-01-15T10:06:21;-0.30;99.90
3846;DHT22;1938;50.812;7.738;2024-01-15T10:08:48;-0.30;99.90
3846;DHT22;1938;50.812;7.738;2024-01-15T10:11:14;-0.50;99.90
3846;DHT22;1938;50.812;7.738;2024-01-15T10:13:40;-0.50;99.90
3846;DHT22;1938;50.812;7.738;2024-01-15T10:16:06;-0.50;99.90
3846;DHT22;1938;50.812;7.738;2024-01-15T10:18:32;-0.60;99.90
3846;DHT22;1938;50.812;7.738;2024-01-15T10:20:58;-0.50;99.90
3846;DHT22;1938;50.812;7.738;2024-01-15T10:23:24;-0.30;99.90
3846;DHT22;1938;50.812;7.738;2024-01-15T10:25:49;-0.10;99.90
3846;DHT22;1938;50.812;7.738;2024-01-15T10:28:17;0.10;99.90
3846;DHT22;1938;50.812;7.738;2024-01-15T10:30:44;0.30;99.90
3846;DHT22;1938;50.812;7.738;2024-01-15T10:33:10;0.30;99.90
3846;DHT22;1938;50.812;7.738;2024-01-15T10:35:37;0.50;99.90
3846;DHT22;1938;50.812;7.738;2024-01-15T10:38:03;0.60;99.90
3846;DHT22;1938;50.812;7.738;2024-01-15T10:40:31;0.70;99.90
3846;DHT22;1938;50.812;7.738;2024-01-15T10:42:57;0.70;99.90
3846;DHT22;1938;50.812;7.738;2024-01-15T10:45:23;0.70;99.90
3846;DHT22;1938;50.812;7.738;2024-01-15T10:47:49;0.80;99.90
3846;DHT22;1938;50.812;7.738;2024-01-15T10:50:15;0.80;99.90
3846;DHT22;1938;50.812;7.738;2024-01-15T10:52:41;0.90;99.90
3846;DHT22;1938;50.812;7.738;2024-01-15T10:55:10;0.90;99.90
3846;DHT22;1938;50.812;7.738;2024-01-15T10:57:39;0.80;99.90
3846;DHT22;1938;50.812;7.738;2024-01-15T11:00:05;0.90;99.90
3846;DHT22;1938;50.812;7.738;2024-01-15T11:02:36;0.80;99.90
3846;DHT22;1938;50.812;7.738;2024-01-15T11:05:02;0.90;99.90
3846;DHT22;1938;50.812;7.738;2024-01-15T11:07:30;0.90;99.90
3846;DHT22;1938;50.812;7.738;2024-01-15T11:09:56;0.90;99.90
3846;DHT22;1938;50.812;7.738;2024-01-15T11:12:24;1.00;99.90
3846;DHT22;1938;50.812;7.738;2024-01-15T11:14:50;1.10;99.90
3846;DHT22;1938;50.812;7.738;2024-01-15T11:17:17;1.20;99.90
3846;DHT22;1938;50.812;7.738;2024-01-15T11:19:46;1.20;99.90
3846;DHT22;1938;50.812;7.738;2024-01-15T11:24:57;1.20;99.90
3846;DHT22;1938;50.812;7.738;2024-01-15T11:27:42;1.20;99.90
3846;DHT22;1938;50.812;7.738;2024-01-15T11:30:09;1.30;99.90
3846;DHT22;1938;50.812;7.738;2024-01-15T11:32:36;1.30;99.90
3846;DHT22;1938;50.812;7.738;2024-01-15T11:35:02;1.40;99.90
3846;DHT22;1938;50.812;7.738;2024-01-15T11:37:29;1.40;99.90
3846;DHT22;1938;50.812;7.738;2024-01-15T11:40:18;0.90;99.90
3846;DHT22;1938;50.812;7.738;2024-01-15T11:42:45;0.50;99.90
3846;DHT22;1938;50.812;7.738;2024-01-15T11:45:11;0.30;99.90
3846;DHT22;1938;50.812;7.738;2024-01-15T11:48:05;0.20;99.90
3846;DHT22;1938;50.812;7.738;2024-01-15T11:50:34;0.00;99.90
3846;DHT22;1938;50.812;7.738;2024-01-15T11:53:03;-0.10;99.90
3846;DHT22;1938;50.812;7.738;2024-01-15T11:55:35;-0.20;99.90
3846;DHT22;1938;50.812;7.738;2024-01-15T11:58:02;-0.20;99.90
3846;DHT22;1938;50.812;7.738;2024-01-15T12:00:29;-0.10;99.90
3846;DHT22;1938;50.812;7.738;2024-01-15T12:02:55;0.30;99.90
3846;DHT22;1938;50.812;7.738;2024-01-15T12:05:23;0.10;99.90
3846;DHT22;1938;50.812;7.738;2024-01-15T12:07:50;-0.10;99.90
3846;DHT22;1938;50.812;7.738;2024-01-15T12:10:19;-0.10;99.90
3846;DHT22;1938;50.812;7.738;2024-01-15T12:12:58;-0.10;99.90
3846;DHT22;1938;50.812;7.738;2024-01-15T12:15:26;-0.20;99.90
3846;DHT22;1938;50.812;7.738;2024-01-15T12:17:52;-0.20;99.90
3846;DHT22;1938;50.812;7.738;2024-01-15T12:20:19;-0.10;99.90
3846;DHT22;1938;50.812;7.738;2024-01-15T12:22:45;0.00;99.90
3846;DHT22;1938;50.812;7.738;2024-01-15T12:25:11;0.00;99.90
3846;DHT22;1938;50.812;7.738;2024-01-15T12:27:37;0.30;99.90
3846;DHT22;1938;50.812;7.738;2024-01-15T12:30:03;0.10;99.90
3846;DHT22;1938;50.812;7.738;2024-01-15T12:32:29;0.00;99.90
3846;DHT22;1938;50.812;7.738;2024-01-15T12:34:55;-0.20;99.90
3846;DHT22;1938;50.812;7.738;2024-01-15T12:37:21;-0.30;99.90
3846;DHT22;1938;50.812;7.738;2024-01-15T12:39:47;-0.20;99.90
3846;DHT22;1938;50.812;7.738;2024-01-15T12:42:16;-0.20;99.90
3846;DHT22;1938;50.812;7.738;2024-01-15T12:44:42;-0.20;99.90
3846;DHT22;1938;50.812;7.738;2024-01-15T12:47:08;-0.30;99.90
3846;DHT22;1938;50.812;7.738;2024-01-15T12:49:36;-0.30;99.90
3846;DHT22;1938;50.812;7.738;2024-01-15T12:52:03;-0.10;99.90
3846;DHT22;1938;50.812;7.738;2024-01-15T12:54:28;-0.10;99.90
3846;DHT22;1938;50.812;7.738;2024-01-15T12:56:54;-0.20;99.90
3846;DHT22;1938;50.812;7.738;2024-01-15T12:59:20;-0.20;99.90
3846;DHT22;1938;50.812;7.738;2024-01-15T13:01:46;-0.30;99.90
3846;DHT22;1938;50.812;7.738;2024-01-15T13:04:20;-0.20;99.90
3846;DHT22;1938;50.812;7.738;2024-01-15T13:06:46;-0.30;99.90
3846;DHT22;1938;50.812;7.738;2024-01-15T13:09:12;-0.30;99.90
3846;DHT22;1938;50.812;7.738;2024-01-15T13:11:37;-0.30;99.90
3846;DHT22;1938;50.812;7.738;2024-01-15T13:14:03;-0.30;99.90
3846;DHT22;1938;50.812;7.738;2024-01-15T13:16:28;-0.30;99.90
3846;DHT22;1938;50.812;7.738;2024-01-15T13:18:55;-0.30;99.90
3846;DHT22;1938;50.812;7.738;2024-01-15T13:21:22;-0.20;99.90
3846;DHT22;1938;50.812;7.738;2024-01-15T13:23:48;-0.30;99.90
3846;DHT22;1938;50.812;7.738;2024-01-15T13:26:14;-0.20;99.90
3846;DHT22;1938;50.812;7.738;2024-01-15T13:28:39;-0.20;99.90
3846;DHT22;1938;50.812;7.738;2024-01-15T13:31:05;-0.10;99.90
3846;DHT22;1938;50.812;7.738;2024-01-15T13:33:30;0.00;99.90
3846;DHT22;1938;50.812;7.738;2024-01-15T13:35:56;0.20;99.90
3846;DHT22;1938;50.812;7.738;2024-01-15T13:38:21;0.30;99.90
3846;DHT22;1938;50.812;7.738;2024-01-15T13:40:47;0.20;99.90
3846;DHT22;1938;50.812;7.738;2024-01-15T13:43:13;0.00;99.90
3846;DHT22;1938;50.812;7.738;2024-01-15T13:45:41;0.00;99.90
3846;DHT22;1938;50.812;7.738;2024-01-15T13:48:06;-0.10;99.90
3846;DHT22;1938;50.812;7.738;2024-01-15T13:50:34;-0.20;99.90
3846;DHT22;1938;50.812;7.738;2024-01-15T13:53:00;-0.20;99.90
3846;DHT22;1938;50.812;7.738;2024-01-15T13:55:25;-0.10;99.90
3846;DHT22;1938;50.812;7.738;2024-01-15T13:57:52;0.00;99.90
3846;DHT22;1938;50.812;7.738;2024-01-15T14:00:18;-0.10;99.90
3846;DHT22;1938;50.812;7.738;2024-01-15T14:02:45;-0.10;99.90
3846;DHT22;1938;50.812;7.738;2024-01-15T14:05:12;-0.20;99.90
3846;DHT22;1938;50.812;7.738;2024-01-15T14:07:38;-0.20;99.90
3846;DHT22;1938;50.812;7.738;2024-01-15T14:10:05;-0.20;99.90
3846;DHT22;1938;50.812;7.738;2024-01-15T14:12:31;-0.30;99.90
3846;DHT22;1938;50.812;7.738;2024-01-15T14:14:57;-0.30;99.90
3846;DHT22;1938;50.812;7.738;2024-01-15T14:17:22;-0.30;99.90
3846;DHT22;1938;50.812;7.738;2024-01-15T14:19:48;-0.20;99.90
3846;DHT22;1938;50.812;7.738;2024-01-15T14:22:13;0.10;99.90
3846;DHT22;1938;50.812;7.738;2024-01-15T14:24:39;-0.10;99.90
3846;DHT22;1938;50.812;7.738;2024-01-15T14:27:04;-0.20;99.90
3846;DHT22;1938;50.812;7.738;2024-01-15T14:29:34;-0.20;99.90
3846;DHT22;1938;50.812;7.738;2024-01-15T14:31:59;-0.20;99.90
3846;DHT22;1938;50.812;7.738;2024-01-15T14:34:25;-0.20;99.90
3846;DHT22;1938;50.812;7.738;2024-01-15T14:36:51;-0.20;99.90
3846;DHT22;1938;50.812;7.738;2024-01-15T14:39:19;-0.30;99.90
3846;DHT22;1938;50.812;7.738;2024-01-15T14:41:45;-0.30;99.90
3846;DHT22;1938;50.812;7.738;2024-01-15T14:44:11;-0.20;99.90
3846;DHT22;1938;50.812;7.738;2024-01-15T14:46:37;0.10;99.90
3846;DHT22;1938;50.812;7.738;2024-01-15T14:49:03;-0.10;99.90
3846;DHT22;1938;50.812;7.738;2024-01-15T14:51:29;-0.10;99.90
3846;DHT22;1938;50.812;7.738;2024-01-15T14:53:54;-0.20;99.90
3846;DHT22;1938;50.812;7.738;2024-01-15T14:56:20;-0.40;99.90
3846;DHT22;1938;50.812;7.738;2024-01-15T14:58:46;-0.40;99.90
3846;DHT22;1938;50.812;7.738;2024-01-15T15:01:12;-0.40;99.90
3846;DHT22;1938;50.812;7.738;2024-01-15T15:03:38;-0.40;99.90
3846;DHT22;1938;50.812;7.738;2024-01-15T15:06:04;-0.40;99.90
3846;DHT22;1938;50.812;7.738;2024-01-15T15:08:30;-0.30;99.90
3846;DHT22;1938;50.812;7.738;2024-01-15T15:10:56;-0.10;99.90
3846;DHT22;1938;50.812;7.738;2024-01-15T15:13:22;-0.20;99.90
3846;DHT22;1938;50.812;7.738;2024-01-15T15:15:48;-0.30;99.90
3846;DHT22;1938;50.812;7.738;2024-01-15T15:18:14;-0.30;99.90
3846;DHT22;1938;50.812;7.738;2024-01-15T15:20:40;-0.40;99.90
3846;DHT22;1938;50.812;7.738;2024-01-15T15:23:05;-0.40;99.90
3846;DHT22;1938;50.812;7.738;2024-01-15T15:25:34;-0.40;99.90
3846;DHT22;1938;50.812;7.738;2024-01-15T15:28:01;-0.40;99.90
3846;DHT22;1938;50.812;7.738;2024-01-15T15:30:26;-0.40;99.90
3846;DHT22;1938;50.812;7.738;2024-01-15T15:32:52;-0.50;99.90
3846;DHT22;1938;50.812;7.738;2024-01-15T15:35:17;-0.30;99.90
3846;DHT22;1938;50.812;7.738;2024-01-15T15:37:43;-0.10;99.90
3846;DHT22;1938;50.812;7.738;2024-01-15T15:40:09;-0.30;99.90
3846;DHT22;1938;50.812;7.738;2024-01-15T15:42:36;-0.40;99.90
3846;DHT22;1938;50.812;7.738;2024-01-15T15:45:05;-0.50;99.90
3846;DHT22;1938;50.812;7.738;2024-01-15T15:47:32;-0.50;99.90
3846;DHT22;1938;50.812;7.738;2024-01-15T15:49:58;-0.50;99.90
3846;DHT22;1938;50.812;7.738;2024-01-15T15:52:24;-0.50;99.90
3846;DHT22;1938;50.812;7.738;2024-01-15T15:54:50;-0.60;99.90
3846;DHT22;1938;50.812;7.738;2024-01-15T15:57:15;-0.60;99.90
3846;DHT22;1938;50.812;7.738;2024-01-15T15:59:41;-0.40;99.90
3846;DHT22;1938;50.812;7.738;2024-01-15T16:02:06;-0.30;99.90
3846;DHT22;1938;50.812;7.738;2024-01-15T16:04:32;-0.40;99.90
3846;DHT22;1938;50.812;7.738;2024-01-15T16:06:58;-0.50;99.90
3846;DHT22;1938;50.812;7.738;2024-01-15T16:09:24;-0.50;99.90
3846;DHT22;1938;50.812;7.738;2024-01-15T16:11:49;-0.50;99.90